Cinque Terre — IUTV — position and weather

sailwx.info

Track history (hours):
 
Tides and Currents Weather Stations Pressure Air Temp Water Temp Dewpoint Dewpoint Depression Visibility Wind Speed Wind Dir Waves Ship Positions

Cinque Terre

Last reported at 2017-Jun-27 16:46 UTC. Time now 2017-Jun-29 02:23 UTC.
Position N 40°37' E 014°20'.

Length 15 m; draft 1 m.

Type: Passenger vessel. MMSI: 247208400.

Date/timePositionNaut miles runAvg speedWind from/ knotsBaromVisibWave heightAir tempDewpointWater temp
2017-Jun-27 16:46N 40°37' E 014°20'1 5.3
2017-Jun-27 16:31N 40°38' E 014°21'6 1.7
2017-Jun-27 12:36N 40°33' E 014°15'0 0.0
2017-Jun-27 12:23N 40°33' E 014°15'0 0.0
2017-Jun-27 11:56N 40°33' E 014°15'5 1.2
2017-Jun-27 07:42N 40°37' E 014°20'1 7.0
2017-Jun-27 07:31N 40°38' E 014°21'2 4.0
2017-Jun-27 07:01N 40°38' E 014°24'3 0.2
2017-Jun-26 16:46N 40°37' E 014°20'1 3.3
2017-Jun-26 16:30N 40°38' E 014°21'7 6.4
2017-Jun-26 15:29N 40°33' E 014°14'1 2.0
2017-Jun-26 15:00N 40°33' E 014°15'0 0.1
2017-Jun-26 10:53N 40°33' E 014°15'0 0.0
2017-Jun-26 10:30N 40°33' E 014°15'1 1.2
2017-Jun-26 09:52N 40°33' E 014°15'2 4.7
2017-Jun-26 09:23N 40°33' E 014°12'2 6.6
2017-Jun-26 09:00N 40°32' E 014°15'7 0.4
2017-Jun-25 16:46N 40°38' E 014°20'0 0.5
2017-Jun-25 16:30N 40°38' E 014°20'6 8.4
2017-Jun-25 15:47N 40°33' E 014°15'0 0.3
2017-Jun-25 15:29N 40°33' E 014°15'2 3.8
2017-Jun-25 14:54N 40°35' E 014°17'3 0.7
2017-Jun-25 10:17N 40°37' E 014°20'2 8.2
2017-Jun-25 10:01N 40°35' E 014°18'5 5.7
2017-Jun-25 09:06N 40°32' E 014°12'8 0.5
2017-Jun-24 16:48N 40°38' E 014°20'0 0.0
2017-Jun-24 16:30N 40°38' E 014°20'6 5.4
2017-Jun-24 15:25N 40°34' E 014°15'1 2.0
2017-Jun-24 14:55N 40°33' E 014°15'0 0.0
2017-Jun-24 14:30N 40°33' E 014°15'0 0.0
2017-Jun-24 11:44N 40°33' E 014°15'0 0.0
2017-Jun-24 11:30N 40°33' E 014°15'0 0.0
2017-Jun-24 10:34N 40°33' E 014°15'0 0.0
2017-Jun-24 10:24N 40°33' E 014°15'3 2.7
2017-Jun-24 09:24N 40°34' E 014°12'7 0.4
2017-Jun-23 16:54N 40°37' E 014°20'6 3.1
2017-Jun-23 14:57N 40°33' E 014°15'0 0.2
2017-Jun-23 14:30N 40°33' E 014°15'0 0.0
2017-Jun-23 10:38N 40°33' E 014°15'0 0.0
2017-Jun-23 10:30N 40°33' E 014°15'2 1.6
2017-Jun-23 09:10N 40°32' E 014°12'2 9.1
2017-Jun-23 08:56N 40°33' E 014°15'6 0.4
2017-Jun-22 16:44N 40°37' E 014°20'1 6.1
2017-Jun-22 16:30N 40°38' E 014°21'4 7.4
2017-Jun-22 15:57N 40°35' E 014°17'2 2.6
2017-Jun-22 15:09N 40°33' E 014°16'1 5.6
2017-Jun-22 15:00N 40°33' E 014°16'1 0.2
2017-Jun-22 11:17N 40°33' E 014°15'0 0.0
2017-Jun-22 11:00N 40°33' E 014°15'0 0.0
2017-Jun-22 10:26N 40°33' E 014°15'2 1.8
2017-Jun-22 09:13N 40°32' E 014°12'8 0.5
2017-Jun-21 16:50N 40°37' E 014°20'6 4.5
2017-Jun-21 15:31N 40°33' E 014°14'0 5.7
2017-Jun-21 15:30N 40°33' E 014°15'1 1.6
2017-Jun-21 15:00N 40°33' E 014°15'0 0.1
2017-Jun-21 14:31N 40°33' E 014°15'0 0.0
2017-Jun-21 10:58N 40°33' E 014°15'2 1.3
2017-Jun-21 09:12N 40°33' E 014°12'1 7.2
2017-Jun-21 09:00N 40°32' E 014°13'8 0.5
2017-Jun-20 16:51N 40°38' E 014°20'4 5.1
2017-Jun-20 16:07N 40°35' E 014°17'2 2.3
2017-Jun-20 15:11N 40°33' E 014°16'3 0.5
2017-Jun-20 09:15N 40°32' E 014°12'  
Track history (hours):
 
Tides and Currents Weather Stations Pressure Air Temp Water Temp Dewpoint Dewpoint Depression Visibility Wind Speed Wind Dir Waves Ship Positions

Cinque Terre

Last reported at 2017-Jun-27 16:46 UTC. Time now 2017-Jun-29 02:23 UTC.
Position N 40°37' E 014°20'.

Length 15 m; draft 1 m.

Type: Passenger vessel. MMSI: 247208400.

Date/timePositionNaut miles runAvg speedWind from/ knotsBaromVisibWave heightAir tempDewpointWater temp
2017-Jun-27 16:46N 40°37' E 014°20'1 5.3
2017-Jun-27 16:31N 40°38' E 014°21'6 1.7
2017-Jun-27 12:36N 40°33' E 014°15'0 0.0
2017-Jun-27 12:23N 40°33' E 014°15'0 0.0
2017-Jun-27 11:56N 40°33' E 014°15'5 1.2
2017-Jun-27 07:42N 40°37' E 014°20'1 7.0
2017-Jun-27 07:31N 40°38' E 014°21'2 4.0
2017-Jun-27 07:01N 40°38' E 014°24'3 0.2
2017-Jun-26 16:46N 40°37' E 014°20'1 3.3
2017-Jun-26 16:30N 40°38' E 014°21'7 6.4
2017-Jun-26 15:29N 40°33' E 014°14'1 2.0
2017-Jun-26 15:00N 40°33' E 014°15'0 0.1
2017-Jun-26 10:53N 40°33' E 014°15'0 0.0
2017-Jun-26 10:30N 40°33' E 014°15'1 1.2
2017-Jun-26 09:52N 40°33' E 014°15'2 4.7
2017-Jun-26 09:23N 40°33' E 014°12'2 6.6
2017-Jun-26 09:00N 40°32' E 014°15'7 0.4
2017-Jun-25 16:46N 40°38' E 014°20'0 0.5
2017-Jun-25 16:30N 40°38' E 014°20'6 8.4
2017-Jun-25 15:47N 40°33' E 014°15'0 0.3
2017-Jun-25 15:29N 40°33' E 014°15'2 3.8
2017-Jun-25 14:54N 40°35' E 014°17'3 0.7
2017-Jun-25 10:17N 40°37' E 014°20'2 8.2
2017-Jun-25 10:01N 40°35' E 014°18'5 5.7
2017-Jun-25 09:06N 40°32' E 014°12'8 0.5
2017-Jun-24 16:48N 40°38' E 014°20'0 0.0
2017-Jun-24 16:30N 40°38' E 014°20'6 5.4
2017-Jun-24 15:25N 40°34' E 014°15'1 2.0
2017-Jun-24 14:55N 40°33' E 014°15'0 0.0
2017-Jun-24 14:30N 40°33' E 014°15'0 0.0
2017-Jun-24 11:44N 40°33' E 014°15'0 0.0
2017-Jun-24 11:30N 40°33' E 014°15'0 0.0
2017-Jun-24 10:34N 40°33' E 014°15'0 0.0
2017-Jun-24 10:24N 40°33' E 014°15'3 2.7
2017-Jun-24 09:24N 40°34' E 014°12'7 0.4
2017-Jun-23 16:54N 40°37' E 014°20'6 3.1
2017-Jun-23 14:57N 40°33' E 014°15'0 0.2
2017-Jun-23 14:30N 40°33' E 014°15'0 0.0
2017-Jun-23 10:38N 40°33' E 014°15'0 0.0
2017-Jun-23 10:30N 40°33' E 014°15'2 1.6
2017-Jun-23 09:10N 40°32' E 014°12'2 9.1
2017-Jun-23 08:56N 40°33' E 014°15'6 0.4
2017-Jun-22 16:44N 40°37' E 014°20'1 6.1
2017-Jun-22 16:30N 40°38' E 014°21'4 7.4
2017-Jun-22 15:57N 40°35' E 014°17'2 2.6
2017-Jun-22 15:09N 40°33' E 014°16'1 5.6
2017-Jun-22 15:00N 40°33' E 014°16'1 0.2
2017-Jun-22 11:17N 40°33' E 014°15'0 0.0
2017-Jun-22 11:00N 40°33' E 014°15'0 0.0
2017-Jun-22 10:26N 40°33' E 014°15'2 1.8
2017-Jun-22 09:13N 40°32' E 014°12'8 0.5
2017-Jun-21 16:50N 40°37' E 014°20'6 4.5
2017-Jun-21 15:31N 40°33' E 014°14'0 5.7
2017-Jun-21 15:30N 40°33' E 014°15'1 1.6
2017-Jun-21 15:00N 40°33' E 014°15'0 0.1
2017-Jun-21 14:31N 40°33' E 014°15'0 0.0
2017-Jun-21 10:58N 40°33' E 014°15'2 1.3
2017-Jun-21 09:12N 40°33' E 014°12'1 7.2
2017-Jun-21 09:00N 40°32' E 014°13'8 0.5
2017-Jun-20 16:51N 40°38' E 014°20'4 5.1
2017-Jun-20 16:07N 40°35' E 014°17'2 2.3
2017-Jun-20 15:11N 40°33' E 014°16'3 0.5
2017-Jun-20 09:15N 40°32' E 014°12'  

Dump ship's entire track history